Terminal Aerodrome Forecast
Issued by NWS Lake Charles, LA

Home | Current Version | Previous Version | Text Only | Print | Product List | Glossary On
Versions: 1 2 3 4 5 6 7 8 9 10 11 12 13 14 15 16 17 18 19 20 21 22 23
000
FTUS44 KLCH 230900 AAC
TAFLCH
TAF AMD
KLCH 230925Z 2309/2406 12011KT 4SM RA BR SCT006 BKN050 OVC090
      TEMPO 2309/2311 VRB30G45KT 1SM TSRA OVC005CB
     FM231100 18007KT 4SM -RA BR OVC005
      TEMPO 2311/2312 1SM TSRA SCT006 BKN025CB OVC050
     FM231500 21012KT P6SM SCT015 SCT250=

USA.gov is the U.S. government's official web portal to all federal, state and local government web resources and services.